sensor_id;sensor_type;location;lat;lon;timestamp;P1;durP1;ratioP1;P2;durP2;ratioP2
6292;SDS011;3179;54.350;10.102;2024-01-10T00:01:24;25.53;;;14.87;;
6292;SDS011;3179;54.350;10.102;2024-01-10T00:03:53;20.47;;;13.07;;
6292;SDS011;3179;54.350;10.102;2024-01-10T00:06:20;19.30;;;13.20;;
6292;SDS011;3179;54.350;10.102;2024-01-10T00:08:48;22.57;;;14.57;;
6292;SDS011;3179;54.350;10.102;2024-01-10T00:11:15;21.37;;;14.10;;
6292;SDS011;3179;54.350;10.102;2024-01-10T00:13:42;21.90;;;15.10;;
6292;SDS011;3179;54.350;10.102;2024-01-10T00:16:11;22.00;;;14.97;;
6292;SDS011;3179;54.350;10.102;2024-01-10T00:18:38;21.87;;;14.27;;
6292;SDS011;3179;54.350;10.102;2024-01-10T00:21:06;20.60;;;13.23;;
6292;SDS011;3179;54.350;10.102;2024-01-10T00:23:33;19.20;;;13.60;;
6292;SDS011;3179;54.350;10.102;2024-01-10T00:26:00;22.60;;;13.17;;
6292;SDS011;3179;54.350;10.102;2024-01-10T00:28:27;14.37;;;10.43;;
6292;SDS011;3179;54.350;10.102;2024-01-10T00:30:54;14.83;;;10.37;;
6292;SDS011;3179;54.350;10.102;2024-01-10T00:33:21;16.50;;;11.03;;
6292;SDS011;3179;54.350;10.102;2024-01-10T00:35:48;22.73;;;12.10;;
6292;SDS011;3179;54.350;10.102;2024-01-10T00:38:16;16.47;;;11.53;;
6292;SDS011;3179;54.350;10.102;2024-01-10T00:40:43;17.10;;;12.57;;
6292;SDS011;3179;54.350;10.102;2024-01-10T00:43:09;17.43;;;11.67;;
6292;SDS011;3179;54.350;10.102;2024-01-10T00:45:36;20.23;;;13.40;;
6292;SDS011;3179;54.350;10.102;2024-01-10T00:48:03;18.73;;;13.00;;
6292;SDS011;3179;54.350;10.102;2024-01-10T00:50:31;24.37;;;15.77;;
6292;SDS011;3179;54.350;10.102;2024-01-10T00:52:57;19.57;;;12.67;;
6292;SDS011;3179;54.350;10.102;2024-01-10T00:55:27;19.67;;;12.80;;
6292;SDS011;3179;54.350;10.102;2024-01-10T00:57:54;20.53;;;13.90;;
6292;SDS011;3179;54.350;10.102;2024-01-10T01:00:21;17.53;;;12.50;;
6292;SDS011;3179;54.350;10.102;2024-01-10T01:02:49;22.93;;;14.83;;
6292;SDS011;3179;54.350;10.102;2024-01-10T01:05:16;23.87;;;15.20;;
6292;SDS011;3179;54.350;10.102;2024-01-10T01:07:43;20.50;;;12.60;;
6292;SDS011;3179;54.350;10.102;2024-01-10T01:10:10;22.80;;;14.40;;
6292;SDS011;3179;54.350;10.102;2024-01-10T01:12:38;23.20;;;14.00;;
6292;SDS011;3179;54.350;10.102;2024-01-10T01:15:06;20.20;;;12.30;;
6292;SDS011;3179;54.350;10.102;2024-01-10T01:17:33;20.33;;;13.03;;
6292;SDS011;3179;54.350;10.102;2024-01-10T01:20:00;19.93;;;13.37;;
6292;SDS011;3179;54.350;10.102;2024-01-10T01:22:29;20.10;;;12.77;;
6292;SDS011;3179;54.350;10.102;2024-01-10T01:24:56;19.07;;;12.17;;
6292;SDS011;3179;54.350;10.102;2024-01-10T01:27:23;16.97;;;11.50;;
6292;SDS011;3179;54.350;10.102;2024-01-10T01:29:51;18.03;;;11.80;;
6292;SDS011;3179;54.350;10.102;2024-01-10T01:32:18;22.30;;;12.87;;
6292;SDS011;3179;54.350;10.102;2024-01-10T01:34:45;20.00;;;11.50;;
6292;SDS011;3179;54.350;10.102;2024-01-10T01:37:12;18.03;;;12.30;;
6292;SDS011;3179;54.350;10.102;2024-01-10T01:39:39;15.50;;;10.07;;
6292;SDS011;3179;54.350;10.102;2024-01-10T01:42:06;13.67;;;9.80;;
6292;SDS011;3179;54.350;10.102;2024-01-10T01:44:34;17.97;;;12.00;;
6292;SDS011;3179;54.350;10.102;2024-01-10T01:47:02;16.70;;;11.13;;
6292;SDS011;3179;54.350;10.102;2024-01-10T01:49:30;16.70;;;10.50;;
6292;SDS011;3179;54.350;10.102;2024-01-10T01:51:57;18.13;;;10.83;;
6292;SDS011;3179;54.350;10.102;2024-01-10T01:54:24;17.23;;;11.90;;
6292;SDS011;3179;54.350;10.102;2024-01-10T01:56:51;15.10;;;11.43;;
6292;SDS011;3179;54.350;10.102;2024-01-10T01:59:19;17.50;;;11.43;;
6292;SDS011;3179;54.350;10.102;2024-01-10T02:01:46;17.40;;;10.93;;
6292;SDS011;3179;54.350;10.102;2024-01-10T02:04:14;16.57;;;11.03;;
6292;SDS011;3179;54.350;10.102;2024-01-10T02:06:41;17.27;;;11.60;;
6292;SDS011;3179;54.350;10.102;2024-01-10T02:09:08;17.30;;;11.10;;
6292;SDS011;3179;54.350;10.102;2024-01-10T02:11:35;15.57;;;10.90;;
6292;SDS011;3179;54.350;10.102;2024-01-10T02:14:02;16.97;;;11.47;;
6292;SDS011;3179;54.350;10.102;2024-01-10T02:16:29;18.17;;;12.27;;
6292;SDS011;3179;54.350;10.102;2024-01-10T02:18:56;17.57;;;11.90;;
6292;SDS011;3179;54.350;10.102;2024-01-10T02:21:25;15.20;;;9.60;;
6292;SDS011;3179;54.350;10.102;2024-01-10T02:23:51;16.30;;;10.60;;
6292;SDS011;3179;54.350;10.102;2024-01-10T02:26:22;24.60;;;12.53;;
6292;SDS011;3179;54.350;10.102;2024-01-10T02:28:49;18.73;;;11.80;;
6292;SDS011;3179;54.350;10.102;2024-01-10T02:31:16;16.50;;;10.90;;
6292;SDS011;3179;54.350;10.102;2024-01-10T02:33:43;17.10;;;11.50;;
6292;SDS011;3179;54.350;10.102;2024-01-10T02:36:09;17.07;;;10.73;;
6292;SDS011;3179;54.350;10.102;2024-01-10T02:38:36;19.53;;;12.33;;
6292;SDS011;3179;54.350;10.102;2024-01-10T02:41:05;20.87;;;13.00;;
6292;SDS011;3179;54.350;10.102;2024-01-10T02:43:33;17.83;;;11.37;;
6292;SDS011;3179;54.350;10.102;2024-01-10T02:46:00;19.20;;;12.80;;
6292;SDS011;3179;54.350;10.102;2024-01-10T02:48:27;19.33;;;12.57;;
6292;SDS011;3179;54.350;10.102;2024-01-10T02:50:54;21.80;;;13.80;;
6292;SDS011;3179;54.350;10.102;2024-01-10T02:53:21;19.40;;;12.10;;
6292;SDS011;3179;54.350;10.102;2024-01-10T02:55:48;20.43;;;13.80;;
6292;SDS011;3179;54.350;10.102;2024-01-10T02:58:15;19.90;;;13.20;;
6292;SDS011;3179;54.350;10.102;2024-01-10T03:00:43;20.47;;;12.97;;
6292;SDS011;3179;54.350;10.102;2024-01-10T03:03:10;22.63;;;14.27;;
6292;SDS011;3179;54.350;10.102;2024-01-10T03:05:37;21.50;;;14.30;;
6292;SDS011;3179;54.350;10.102;2024-01-10T03:08:04;21.60;;;13.13;;
6292;SDS011;3179;54.350;10.102;2024-01-10T03:10:32;20.30;;;13.73;;
6292;SDS011;3179;54.350;10.102;2024-01-10T03:12:58;20.10;;;12.80;;
6292;SDS011;3179;54.350;10.102;2024-01-10T03:15:25;19.33;;;12.97;;
6292;SDS011;3179;54.350;10.102;2024-01-10T03:17:53;19.83;;;13.53;;
6292;SDS011;3179;54.350;10.102;2024-01-10T03:20:20;17.93;;;12.50;;
6292;SDS011;3179;54.350;10.102;2024-01-10T03:22:47;20.00;;;11.97;;
6292;SDS011;3179;54.350;10.102;2024-01-10T03:25:14;17.07;;;11.47;;
6292;SDS011;3179;54.350;10.102;2024-01-10T03:27:41;22.93;;;14.60;;
6292;SDS011;3179;54.350;10.102;2024-01-10T03:30:08;25.97;;;14.20;;
6292;SDS011;3179;54.350;10.102;2024-01-10T03:32:35;20.53;;;13.37;;
6292;SDS011;3179;54.350;10.102;2024-01-10T03:35:04;25.50;;;14.10;;
6292;SDS011;3179;54.350;10.102;2024-01-10T03:37:32;22.40;;;15.00;;
6292;SDS011;3179;54.350;10.102;2024-01-10T03:39:59;22.20;;;14.50;;
6292;SDS011;3179;54.350;10.102;2024-01-10T03:42:26;24.47;;;14.90;;
6292;SDS011;3179;54.350;10.102;2024-01-10T03:44:53;19.40;;;13.07;;
6292;SDS011;3179;54.350;10.102;2024-01-10T03:47:19;27.97;;;14.80;;
6292;SDS011;3179;54.350;10.102;2024-01-10T03:49:46;21.53;;;13.80;;
6292;SDS011;3179;54.350;10.102;2024-01-10T03:52:14;28.00;;;16.50;;
6292;SDS011;3179;54.350;10.102;2024-01-10T03:54:41;24.50;;;15.50;;
6292;SDS011;3179;54.350;10.102;2024-01-10T03:57:08;22.80;;;14.30;;
6292;SDS011;3179;54.350;10.102;2024-01-10T03:59:35;24.20;;;14.63;;
6292;SDS011;3179;54.350;10.102;2024-01-10T04:02:02;24.87;;;14.37;;
6292;SDS011;3179;54.350;10.102;2024-01-10T04:04:29;27.93;;;16.37;;
6292;SDS011;3179;54.350;10.102;2024-01-10T04:06:56;27.30;;;16.23;;
6292;SDS011;3179;54.350;10.102;2024-01-10T04:09:24;26.27;;;14.70;;
6292;SDS011;3179;54.350;10.102;2024-01-10T04:11:51;28.00;;;17.27;;
6292;SDS011;3179;54.350;10.102;2024-01-10T04:14:18;24.60;;;14.40;;
6292;SDS011;3179;54.350;10.102;2024-01-10T04:16:45;25.07;;;14.43;;
6292;SDS011;3179;54.350;10.102;2024-01-10T04:19:13;27.77;;;15.93;;
6292;SDS011;3179;54.350;10.102;2024-01-10T04:21:40;29.10;;;16.87;;
6292;SDS011;3179;54.350;10.102;2024-01-10T04:24:07;33.20;;;16.27;;
6292;SDS011;3179;54.350;10.102;2024-01-10T04:26:35;26.83;;;15.23;;
6292;SDS011;3179;54.350;10.102;2024-01-10T04:29:02;27.00;;;15.00;;
6292;SDS011;3179;54.350;10.102;2024-01-10T04:31:29;23.77;;;15.00;;
6292;SDS011;3179;54.350;10.102;2024-01-10T04:33:56;25.80;;;16.13;;
6292;SDS011;3179;54.350;10.102;2024-01-10T04:36:23;28.10;;;16.80;;
6292;SDS011;3179;54.350;10.102;2024-01-10T04:38:50;29.67;;;17.30;;
6292;SDS011;3179;54.350;10.102;2024-01-10T04:41:18;27.10;;;16.27;;
6292;SDS011;3179;54.350;10.102;2024-01-10T04:43:47;29.50;;;17.63;;
6292;SDS011;3179;54.350;10.102;2024-01-10T04:46:13;31.80;;;17.43;;
6292;SDS011;3179;54.350;10.102;2024-01-10T04:48:40;28.03;;;16.33;;
6292;SDS011;3179;54.350;10.102;2024-01-10T04:51:07;33.37;;;19.00;;
6292;SDS011;3179;54.350;10.102;2024-01-10T04:53:34;32.47;;;18.67;;
6292;SDS011;3179;54.350;10.102;2024-01-10T04:56:01;34.20;;;18.77;;
6292;SDS011;3179;54.350;10.102;2024-01-10T04:58:29;31.00;;;18.50;;
6292;SDS011;3179;54.350;10.102;2024-01-10T05:00:59;33.30;;;18.27;;
6292;SDS011;3179;54.350;10.102;2024-01-10T05:03:26;30.43;;;17.40;;
6292;SDS011;3179;54.350;10.102;2024-01-10T05:05:52;29.37;;;16.67;;
6292;SDS011;3179;54.350;10.102;2024-01-10T05:08:19;33.47;;;18.60;;
6292;SDS011;3179;54.350;10.102;2024-01-10T05:10:46;34.43;;;18.57;;
6292;SDS011;3179;54.350;10.102;2024-01-10T05:13:15;32.17;;;17.00;;
6292;SDS011;3179;54.350;10.102;2024-01-10T05:15:43;33.23;;;17.90;;
6292;SDS011;3179;54.350;10.102;2024-01-10T05:18:12;36.67;;;19.00;;
6292;SDS011;3179;54.350;10.102;2024-01-10T05:20:39;37.80;;;20.90;;
6292;SDS011;3179;54.350;10.102;2024-01-10T05:23:05;35.00;;;19.10;;
6292;SDS011;3179;54.350;10.102;2024-01-10T05:25:32;31.70;;;18.47;;
6292;SDS011;3179;54.350;10.102;2024-01-10T05:27:59;38.50;;;20.00;;
6292;SDS011;3179;54.350;10.102;2024-01-10T05:30:29;33.07;;;18.30;;
6292;SDS011;3179;54.350;10.102;2024-01-10T05:32:57;31.40;;;18.57;;
6292;SDS011;3179;54.350;10.102;2024-01-10T05:35:25;33.47;;;18.33;;
6292;SDS011;3179;54.350;10.102;2024-01-10T05:37:53;35.60;;;19.03;;
6292;SDS011;3179;54.350;10.102;2024-01-10T05:40:21;30.57;;;17.27;;
6292;SDS011;3179;54.350;10.102;2024-01-10T05:42:48;31.50;;;17.93;;
6292;SDS011;3179;54.350;10.102;2024-01-10T05:45:15;35.67;;;19.27;;
6292;SDS011;3179;54.350;10.102;2024-01-10T05:47:43;36.77;;;19.53;;
6292;SDS011;3179;54.350;10.102;2024-01-10T05:50:10;36.00;;;18.80;;
6292;SDS011;3179;54.350;10.102;2024-01-10T05:52:38;37.70;;;17.90;;
6292;SDS011;3179;54.350;10.102;2024-01-10T05:55:07;30.67;;;17.93;;
6292;SDS011;3179;54.350;10.102;2024-01-10T05:57:35;34.43;;;19.47;;
6292;SDS011;3179;54.350;10.102;2024-01-10T06:00:02;33.43;;;18.60;;
6292;SDS011;3179;54.350;10.102;2024-01-10T06:02:34;29.17;;;17.80;;
6292;SDS011;3179;54.350;10.102;2024-01-10T06:05:04;34.27;;;18.83;;
6292;SDS011;3179;54.350;10.102;2024-01-10T06:07:32;31.20;;;17.63;;
6292;SDS011;3179;54.350;10.102;2024-01-10T06:10:00;28.07;;;17.60;;
6292;SDS011;3179;54.350;10.102;2024-01-10T06:12:27;33.07;;;17.63;;
6292;SDS011;3179;54.350;10.102;2024-01-10T06:14:54;31.63;;;17.67;;
6292;SDS011;3179;54.350;10.102;2024-01-10T06:17:21;33.53;;;18.87;;
6292;SDS011;3179;54.350;10.102;2024-01-10T06:19:48;32.97;;;18.20;;
6292;SDS011;3179;54.350;10.102;2024-01-10T06:22:16;30.60;;;18.07;;
6292;SDS011;3179;54.350;10.102;2024-01-10T06:24:43;35.97;;;20.10;;
6292;SDS011;3179;54.350;10.102;2024-01-10T06:27:11;36.03;;;18.93;;
6292;SDS011;3179;54.350;10.102;2024-01-10T06:29:38;26.80;;;15.97;;
6292;SDS011;3179;54.350;10.102;2024-01-10T06:32:05;34.50;;;18.57;;
6292;SDS011;3179;54.350;10.102;2024-01-10T06:34:32;38.03;;;20.20;;
6292;SDS011;3179;54.350;10.102;2024-01-10T06:36:59;31.30;;;17.57;;
6292;SDS011;3179;54.350;10.102;2024-01-10T06:39:26;34.40;;;18.53;;
6292;SDS011;3179;54.350;10.102;2024-01-10T06:41:54;37.03;;;19.40;;
6292;SDS011;3179;54.350;10.102;2024-01-10T06:44:24;34.60;;;18.43;;
6292;SDS011;3179;54.350;10.102;2024-01-10T06:46:52;40.27;;;20.10;;
6292;SDS011;3179;54.350;10.102;2024-01-10T06:49:19;33.80;;;18.37;;
6292;SDS011;3179;54.350;10.102;2024-01-10T06:51:47;40.30;;;19.53;;
6292;SDS011;3179;54.350;10.102;2024-01-10T06:54:14;35.20;;;17.53;;
6292;SDS011;3179;54.350;10.102;2024-01-10T06:56:45;45.70;;;18.43;;
6292;SDS011;3179;54.350;10.102;2024-01-10T06:59:12;45.63;;;21.60;;
6292;SDS011;3179;54.350;10.102;2024-01-10T07:01:40;35.13;;;18.90;;
6292;SDS011;3179;54.350;10.102;2024-01-10T07:04:07;46.77;;;19.77;;
6292;SDS011;3179;54.350;10.102;2024-01-10T07:06:34;35.10;;;19.97;;
6292;SDS011;3179;54.350;10.102;2024-01-10T07:09:01;34.97;;;19.20;;
6292;SDS011;3179;54.350;10.102;2024-01-10T07:11:30;34.43;;;19.23;;
6292;SDS011;3179;54.350;10.102;2024-01-10T07:13:57;34.43;;;19.40;;
6292;SDS011;3179;54.350;10.102;2024-01-10T07:16:24;39.77;;;19.83;;
6292;SDS011;3179;54.350;10.102;2024-01-10T07:18:52;33.53;;;18.43;;
6292;SDS011;3179;54.350;10.102;2024-01-10T07:21:19;41.30;;;20.63;;
6292;SDS011;3179;54.350;10.102;2024-01-10T07:23:46;39.33;;;19.43;;
6292;SDS011;3179;54.350;10.102;2024-01-10T07:26:14;43.40;;;19.83;;
6292;SDS011;3179;54.350;10.102;2024-01-10T07:28:41;41.97;;;21.50;;
6292;SDS011;3179;54.350;10.102;2024-01-10T07:31:08;42.13;;;21.07;;
6292;SDS011;3179;54.350;10.102;2024-01-10T07:33:37;40.60;;;20.30;;
6292;SDS011;3179;54.350;10.102;2024-01-10T07:36:05;44.43;;;21.47;;
6292;SDS011;3179;54.350;10.102;2024-01-10T07:38:33;36.80;;;19.57;;
6292;SDS011;3179;54.350;10.102;2024-01-10T07:41:00;39.23;;;19.20;;
6292;SDS011;3179;54.350;10.102;2024-01-10T07:43:27;39.87;;;21.17;;
6292;SDS011;3179;54.350;10.102;2024-01-10T07:45:54;38.27;;;19.83;;
6292;SDS011;3179;54.350;10.102;2024-01-10T07:48:21;41.70;;;19.43;;
6292;SDS011;3179;54.350;10.102;2024-01-10T07:50:48;38.73;;;18.50;;
6292;SDS011;3179;54.350;10.102;2024-01-10T07:53:16;44.00;;;20.97;;
6292;SDS011;3179;54.350;10.102;2024-01-10T07:55:43;34.00;;;17.53;;
6292;SDS011;3179;54.350;10.102;2024-01-10T07:58:10;38.60;;;19.67;;
6292;SDS011;3179;54.350;10.102;2024-01-10T08:00:37;40.50;;;19.10;;
6292;SDS011;3179;54.350;10.102;2024-01-10T08:03:04;39.60;;;20.10;;
6292;SDS011;3179;54.350;10.102;2024-01-10T08:05:31;34.60;;;18.03;;
6292;SDS011;3179;54.350;10.102;2024-01-10T08:07:58;34.17;;;18.90;;
6292;SDS011;3179;54.350;10.102;2024-01-10T08:10:27;38.10;;;19.03;;
6292;SDS011;3179;54.350;10.102;2024-01-10T08:12:53;44.30;;;21.60;;
6292;SDS011;3179;54.350;10.102;2024-01-10T08:15:21;38.87;;;19.87;;
6292;SDS011;3179;54.350;10.102;2024-01-10T08:17:48;41.40;;;19.90;;
6292;SDS011;3179;54.350;10.102;2024-01-10T08:20:15;44.37;;;20.03;;
6292;SDS011;3179;54.350;10.102;2024-01-10T08:22:45;35.07;;;18.57;;
6292;SDS011;3179;54.350;10.102;2024-01-10T08:25:13;46.20;;;21.47;;
6292;SDS011;3179;54.350;10.102;2024-01-10T08:27:45;43.93;;;20.80;;
6292;SDS011;3179;54.350;10.102;2024-01-10T08:30:14;36.23;;;17.80;;
6292;SDS011;3179;54.350;10.102;2024-01-10T08:32:41;40.10;;;20.50;;
6292;SDS011;3179;54.350;10.102;2024-01-10T08:35:08;45.20;;;20.67;;
6292;SDS011;3179;54.350;10.102;2024-01-10T08:37:36;43.23;;;21.73;;
6292;SDS011;3179;54.350;10.102;2024-01-10T08:40:06;42.30;;;21.50;;
6292;SDS011;3179;54.350;10.102;2024-01-10T08:42:37;45.13;;;21.80;;
6292;SDS011;3179;54.350;10.102;2024-01-10T08:45:06;43.67;;;21.60;;
6292;SDS011;3179;54.350;10.102;2024-01-10T08:47:34;37.20;;;18.80;;
6292;SDS011;3179;54.350;10.102;2024-01-10T08:50:01;38.37;;;18.70;;
6292;SDS011;3179;54.350;10.102;2024-01-10T08:52:30;41.23;;;20.57;;
6292;SDS011;3179;54.350;10.102;2024-01-10T08:54:57;33.77;;;17.47;;
6292;SDS011;3179;54.350;10.102;2024-01-10T08:57:24;41.97;;;20.67;;
6292;SDS011;3179;54.350;10.102;2024-01-10T08:59:52;42.47;;;22.27;;
6292;SDS011;3179;54.350;10.102;2024-01-10T09:02:20;41.67;;;20.33;;
6292;SDS011;3179;54.350;10.102;2024-01-10T09:04:48;39.73;;;20.53;;
6292;SDS011;3179;54.350;10.102;2024-01-10T09:07:17;37.43;;;20.07;;
6292;SDS011;3179;54.350;10.102;2024-01-10T09:09:45;40.57;;;19.83;;
6292;SDS011;3179;54.350;10.102;2024-01-10T09:12:14;38.77;;;18.87;;
6292;SDS011;3179;54.350;10.102;2024-01-10T09:14:40;37.40;;;20.03;;
6292;SDS011;3179;54.350;10.102;2024-01-10T09:17:07;40.37;;;20.93;;
6292;SDS011;3179;54.350;10.102;2024-01-10T09:19:36;44.90;;;20.57;;
6292;SDS011;3179;54.350;10.102;2024-01-10T09:22:03;51.33;;;21.80;;
6292;SDS011;3179;54.350;10.102;2024-01-10T09:24:30;46.27;;;21.53;;
6292;SDS011;3179;54.350;10.102;2024-01-10T09:26:57;50.03;;;24.67;;
6292;SDS011;3179;54.350;10.102;2024-01-10T09:29:24;55.87;;;26.10;;
6292;SDS011;3179;54.350;10.102;2024-01-10T09:31:52;47.43;;;21.90;;
6292;SDS011;3179;54.350;10.102;2024-01-10T09:34:19;44.30;;;20.93;;
6292;SDS011;3179;54.350;10.102;2024-01-10T09:36:47;44.57;;;23.07;;
6292;SDS011;3179;54.350;10.102;2024-01-10T09:39:15;51.73;;;23.97;;
6292;SDS011;3179;54.350;10.102;2024-01-10T09:41:45;44.30;;;22.43;;
6292;SDS011;3179;54.350;10.102;2024-01-10T09:44:15;49.57;;;20.80;;
6292;SDS011;3179;54.350;10.102;2024-01-10T09:46:47;42.50;;;20.20;;
6292;SDS011;3179;54.350;10.102;2024-01-10T09:49:17;48.63;;;22.20;;
6292;SDS011;3179;54.350;10.102;2024-01-10T09:51:48;40.90;;;22.07;;
6292;SDS011;3179;54.350;10.102;2024-01-10T09:54:15;39.00;;;20.70;;
6292;SDS011;3179;54.350;10.102;2024-01-10T09:56:44;41.10;;;20.33;;
6292;SDS011;3179;54.350;10.102;2024-01-10T09:59:11;48.70;;;23.57;;
6292;SDS011;3179;54.350;10.102;2024-01-10T10:01:39;52.23;;;24.10;;
6292;SDS011;3179;54.350;10.102;2024-01-10T10:04:06;43.10;;;19.77;;
6292;SDS011;3179;54.350;10.102;2024-01-10T10:06:34;43.40;;;21.30;;
6292;SDS011;3179;54.350;10.102;2024-01-10T10:09:02;48.10;;;23.17;;
6292;SDS011;3179;54.350;10.102;2024-01-10T10:11:30;40.10;;;20.90;;
6292;SDS011;3179;54.350;10.102;2024-01-10T10:13:57;43.30;;;20.20;;
6292;SDS011;3179;54.350;10.102;2024-01-10T10:16:39;36.50;;;18.97;;
6292;SDS011;3179;54.350;10.102;2024-01-10T10:19:06;40.30;;;20.00;;
6292;SDS011;3179;54.350;10.102;2024-01-10T10:21:34;41.27;;;21.50;;
6292;SDS011;3179;54.350;10.102;2024-01-10T10:24:03;42.40;;;22.87;;
6292;SDS011;3179;54.350;10.102;2024-01-10T10:26:31;41.53;;;21.87;;
6292;SDS011;3179;54.350;10.102;2024-01-10T10:28:59;35.73;;;19.13;;
6292;SDS011;3179;54.350;10.102;2024-01-10T10:31:27;34.90;;;20.10;;
6292;SDS011;3179;54.350;10.102;2024-01-10T10:33:56;38.03;;;19.87;;
6292;SDS011;3179;54.350;10.102;2024-01-10T10:36:25;39.03;;;19.40;;
6292;SDS011;3179;54.350;10.102;2024-01-10T10:38:52;40.30;;;19.77;;
6292;SDS011;3179;54.350;10.102;2024-01-10T10:41:20;35.97;;;19.53;;
6292;SDS011;3179;54.350;10.102;2024-01-10T10:43:48;34.13;;;18.00;;
6292;SDS011;3179;54.350;10.102;2024-01-10T10:46:17;38.83;;;18.97;;
6292;SDS011;3179;54.350;10.102;2024-01-10T10:48:47;31.33;;;16.90;;
6292;SDS011;3179;54.350;10.102;2024-01-10T10:51:15;38.73;;;19.43;;
6292;SDS011;3179;54.350;10.102;2024-01-10T10:53:46;32.67;;;17.10;;
6292;SDS011;3179;54.350;10.102;2024-01-10T10:59:05;31.73;;;17.23;;
6292;SDS011;3179;54.350;10.102;2024-01-10T11:01:33;32.93;;;17.37;;
6292;SDS011;3179;54.350;10.102;2024-01-10T11:04:00;29.57;;;15.53;;
6292;SDS011;3179;54.350;10.102;2024-01-10T11:06:28;33.57;;;17.23;;
6292;SDS011;3179;54.350;10.102;2024-01-10T11:08:56;31.20;;;16.63;;
6292;SDS011;3179;54.350;10.102;2024-01-10T11:11:33;26.07;;;14.50;;
6292;SDS011;3179;54.350;10.102;2024-01-10T11:14:16;27.90;;;15.90;;
6292;SDS011;3179;54.350;10.102;2024-01-10T11:16:55;29.90;;;16.43;;
6292;SDS011;3179;54.350;10.102;2024-01-10T11:19:58;32.73;;;17.40;;
6292;SDS011;3179;54.350;10.102;2024-01-10T11:25:29;24.90;;;14.20;;
6292;SDS011;3179;54.350;10.102;2024-01-10T11:27:58;28.23;;;15.03;;
6292;SDS011;3179;54.350;10.102;2024-01-10T11:30:35;28.97;;;15.33;;
6292;SDS011;3179;54.350;10.102;2024-01-10T11:33:17;26.33;;;14.00;;
6292;SDS011;3179;54.350;10.102;2024-01-10T11:38:38;29.33;;;14.53;;
6292;SDS011;3179;54.350;10.102;2024-01-10T11:41:06;31.13;;;17.00;;
6292;SDS011;3179;54.350;10.102;2024-01-10T11:43:35;29.90;;;17.40;;
6292;SDS011;3179;54.350;10.102;2024-01-10T11:46:02;27.60;;;15.27;;
6292;SDS011;3179;54.350;10.102;2024-01-10T11:48:31;29.53;;;16.30;;
6292;SDS011;3179;54.350;10.102;2024-01-10T11:50:58;27.47;;;15.83;;
6292;SDS011;3179;54.350;10.102;2024-01-10T11:56:18;25.83;;;14.87;;
6292;SDS011;3179;54.350;10.102;2024-01-10T11:58:53;32.83;;;17.50;;
6292;SDS011;3179;54.350;10.102;2024-01-10T12:01:21;27.17;;;15.27;;
6292;SDS011;3179;54.350;10.102;2024-01-10T12:03:49;31.17;;;15.83;;
6292;SDS011;3179;54.350;10.102;2024-01-10T12:06:17;25.83;;;15.53;;
6292;SDS011;3179;54.350;10.102;2024-01-10T12:08:46;27.27;;;16.77;;
6292;SDS011;3179;54.350;10.102;2024-01-10T12:11:13;29.30;;;16.47;;
6292;SDS011;3179;54.350;10.102;2024-01-10T12:13:41;28.13;;;16.20;;
6292;SDS011;3179;54.350;10.102;2024-01-10T12:16:11;27.73;;;16.30;;
6292;SDS011;3179;54.350;10.102;2024-01-10T12:18:39;27.17;;;15.37;;
6292;SDS011;3179;54.350;10.102;2024-01-10T12:21:05;25.33;;;14.60;;
6292;SDS011;3179;54.350;10.102;2024-01-10T12:23:33;28.37;;;15.30;;
6292;SDS011;3179;54.350;10.102;2024-01-10T12:26:04;23.97;;;13.43;;
6292;SDS011;3179;54.350;10.102;2024-01-10T12:28:36;20.20;;;11.47;;
6292;SDS011;3179;54.350;10.102;2024-01-10T12:31:03;19.67;;;11.90;;
6292;SDS011;3179;54.350;10.102;2024-01-10T12:33:31;19.23;;;12.00;;
6292;SDS011;3179;54.350;10.102;2024-01-10T12:36:02;24.73;;;13.90;;
6292;SDS011;3179;54.350;10.102;2024-01-10T12:38:30;19.67;;;11.23;;
6292;SDS011;3179;54.350;10.102;2024-01-10T12:40:58;21.13;;;12.63;;
6292;SDS011;3179;54.350;10.102;2024-01-10T12:43:25;21.20;;;14.30;;
6292;SDS011;3179;54.350;10.102;2024-01-10T12:46:02;26.00;;;13.87;;
6292;SDS011;3179;54.350;10.102;2024-01-10T12:48:30;22.10;;;13.13;;
6292;SDS011;3179;54.350;10.102;2024-01-10T12:51:01;24.37;;;14.30;;
6292;SDS011;3179;54.350;10.102;2024-01-10T12:53:31;22.77;;;13.13;;
6292;SDS011;3179;54.350;10.102;2024-01-10T12:55:59;23.43;;;12.93;;
6292;SDS011;3179;54.350;10.102;2024-01-10T12:58:27;21.50;;;11.97;;
6292;SDS011;3179;54.350;10.102;2024-01-10T13:00:54;21.00;;;12.37;;
6292;SDS011;3179;54.350;10.102;2024-01-10T13:03:20;19.33;;;11.30;;
6292;SDS011;3179;54.350;10.102;2024-01-10T13:05:49;18.60;;;10.83;;
6292;SDS011;3179;54.350;10.102;2024-01-10T13:08:16;15.10;;;8.83;;
6292;SDS011;3179;54.350;10.102;2024-01-10T13:10:44;14.67;;;9.70;;
6292;SDS011;3179;54.350;10.102;2024-01-10T13:13:12;15.87;;;9.80;;
6292;SDS011;3179;54.350;10.102;2024-01-10T13:15:39;15.20;;;9.07;;
6292;SDS011;3179;54.350;10.102;2024-01-10T13:18:07;14.90;;;8.57;;
6292;SDS011;3179;54.350;10.102;2024-01-10T13:20:35;12.80;;;8.50;;
6292;SDS011;3179;54.350;10.102;2024-01-10T13:23:13;13.60;;;8.67;;
6292;SDS011;3179;54.350;10.102;2024-01-10T13:25:41;10.80;;;7.83;;
6292;SDS011;3179;54.350;10.102;2024-01-10T13:28:08;13.20;;;8.57;;
6292;SDS011;3179;54.350;10.102;2024-01-10T13:30:37;10.17;;;7.67;;
6292;SDS011;3179;54.350;10.102;2024-01-10T13:33:06;12.33;;;7.77;;
6292;SDS011;3179;54.350;10.102;2024-01-10T13:35:34;10.97;;;8.23;;
6292;SDS011;3179;54.350;10.102;2024-01-10T13:38:02;11.70;;;7.70;;
6292;SDS011;3179;54.350;10.102;2024-01-10T13:40:30;11.27;;;7.90;;
6292;SDS011;3179;54.350;10.102;2024-01-10T13:42:59;9.07;;;6.70;;
6292;SDS011;3179;54.350;10.102;2024-01-10T13:45:28;9.20;;;6.30;;
6292;SDS011;3179;54.350;10.102;2024-01-10T13:47:55;9.53;;;6.90;;
6292;SDS011;3179;54.350;10.102;2024-01-10T13:50:22;10.63;;;7.77;;
6292;SDS011;3179;54.350;10.102;2024-01-10T13:52:50;10.10;;;6.93;;
6292;SDS011;3179;54.350;10.102;2024-01-10T13:55:18;8.70;;;6.47;;
6292;SDS011;3179;54.350;10.102;2024-01-10T13:57:49;10.07;;;7.20;;
6292;SDS011;3179;54.350;10.102;2024-01-10T14:00:18;7.90;;;6.57;;
6292;SDS011;3179;54.350;10.102;2024-01-10T14:02:46;8.57;;;5.87;;
6292;SDS011;3179;54.350;10.102;2024-01-10T14:05:13;10.10;;;6.27;;
6292;SDS011;3179;54.350;10.102;2024-01-10T14:07:40;8.53;;;5.97;;
6292;SDS011;3179;54.350;10.102;2024-01-10T14:10:09;7.97;;;6.13;;
6292;SDS011;3179;54.350;10.102;2024-01-10T14:12:38;11.43;;;7.37;;
6292;SDS011;3179;54.350;10.102;2024-01-10T14:15:08;7.93;;;5.90;;
6292;SDS011;3179;54.350;10.102;2024-01-10T14:17:35;6.80;;;5.07;;
6292;SDS011;3179;54.350;10.102;2024-01-10T14:20:02;9.10;;;5.60;;
6292;SDS011;3179;54.350;10.102;2024-01-10T14:22:33;7.47;;;5.53;;
6292;SDS011;3179;54.350;10.102;2024-01-10T14:25:00;7.97;;;6.07;;
6292;SDS011;3179;54.350;10.102;2024-01-10T14:27:27;7.50;;;5.00;;
6292;SDS011;3179;54.350;10.102;2024-01-10T14:29:54;10.30;;;6.17;;
6292;SDS011;3179;54.350;10.102;2024-01-10T14:32:23;10.77;;;6.67;;
6292;SDS011;3179;54.350;10.102;2024-01-10T14:34:50;10.10;;;7.43;;
6292;SDS011;3179;54.350;10.102;2024-01-10T14:37:18;10.67;;;7.70;;
6292;SDS011;3179;54.350;10.102;2024-01-10T14:39:46;12.20;;;7.80;;
6292;SDS011;3179;54.350;10.102;2024-01-10T14:42:12;8.20;;;6.20;;
6292;SDS011;3179;54.350;10.102;2024-01-10T14:44:39;8.20;;;5.80;;
6292;SDS011;3179;54.350;10.102;2024-01-10T14:47:06;8.07;;;5.80;;
6292;SDS011;3179;54.350;10.102;2024-01-10T14:49:35;7.10;;;5.60;;
6292;SDS011;3179;54.350;10.102;2024-01-10T14:52:02;7.20;;;5.80;;